Terminal Aerodrome Forecast
Issued by NWS

Home | Current Version | Previous Version | Text Only | Print | Product List | Glossary On
Versions: 1 2 3 4 5 6 7 8 9 10 11 12 13 14
000
FTAK31 PAJN 282334
TAFASI
TAF
PASI 282334Z 2900/2924 25007KT P6SM SCT030 OVC100
     FM290700 11004KT P6SM FEW020 OVC080
     FM291400 VRB04KT P6SM BKN020 OVC040=

USA.gov is the U.S. government's official web portal to all federal, state and local government web resources and services.